Time,TemperatureF,DewpointF,PressureIn,WindDirection,WindDirectionDegrees,WindSpeedMPH,WindSpeedGustMPH,Humidity,HourlyPrecipIn,Conditions,Clouds,dailyrainin,SoftwareType,DateUTC
2013-04-13 00:58:00,36.9,36.2,30.10,NE,45,0.0,5.0,97,0.01,RA,,0.01,WeatherDisplay:10.37,2013-04-13 04:58:00,
2013-04-13 01:58:00,36.5,35.7,30.10,ENE,57,1.0,6.0,97,0.00,CLR,,0.01,WeatherDisplay:10.37,2013-04-13 05:58:00,
2013-04-13 02:58:00,36.4,35.6,30.13,WNW,282,0.0,5.0,97,0.00,CLR,,0.01,WeatherDisplay:10.37,2013-04-13 06:58:00,
2013-04-13 03:58:00,34.0,33.2,30.09,NE,39,1.0,3.0,97,0.06,CLR,,0.07,WeatherDisplay:10.37,2013-04-13 07:58:00,
2013-04-13 04:58:00,33.8,33.0,30.07,NNE,18,0.0,5.0,97,0.01,CLR,,0.08,WeatherDisplay:10.37,2013-04-13 08:58:00,
2013-04-13 05:58:00,34.0,33.5,30.09,ENE,71,0.0,2.0,98,0.00,CLR,,0.08,WeatherDisplay:10.37,2013-04-13 09:58:00,
2013-04-13 06:58:00,34.3,33.8,30.11,WSW,255,0.0,1.0,98,0.00,CLR,,0.08,WeatherDisplay:10.37,2013-04-13 10:58:00,
2013-04-13 08:58:00,36.2,34.9,30.13,North,356,0.0,4.0,95,0.00,CLR,,0.09,WeatherDisplay:10.37,2013-04-13 12:58:00,
2013-04-13 09:58:00,37.5,35.4,30.13,ENE,74,0.0,3.0,92,0.00,CLR,,0.09,WeatherDisplay:10.37,2013-04-13 13:58:00,
2013-04-13 10:58:00,39.0,35.7,30.13,North,355,0.0,2.0,88,0.00,CLR,,0.09,WeatherDisplay:10.37,2013-04-13 14:58:00,
2013-04-13 11:58:00,42.6,38.4,30.13,WSW,249,1.0,6.0,85,0.00,CLR,,0.09,WeatherDisplay:10.37,2013-04-13 15:58:00,
2013-04-13 12:58:00,47.0,40.5,30.11,WNW,299,1.0,4.0,78,0.00,CLR,,0.09,WeatherDisplay:10.37,2013-04-13 16:58:00,
2013-04-13 14:58:00,51.4,39.2,30.08,West,270,1.0,6.0,63,0.00,CLR,,0.09,WeatherDisplay:10.37,2013-04-13 18:58:00,
2013-04-13 15:58:00,50.5,38.3,30.08,West,272,0.0,4.0,63,0.00,CLR,,0.09,WeatherDisplay:10.37,2013-04-13 19:58:00,
2013-04-13 16:58:00,51.0,38.4,30.09,WNW,284,0.0,3.0,62,0.00,CLR,,0.09,WeatherDisplay:10.37,2013-04-13 20:58:00,
2013-04-13 17:58:00,51.0,40.8,30.12,ENE,67,0.0,4.0,68,0.00,CLR,,0.09,WeatherDisplay:10.37,2013-04-13 21:58:00,
2013-04-13 18:58:00,46.1,39.9,30.14,NNW,337,0.0,4.0,79,0.00,CLR,,0.09,WeatherDisplay:10.37,2013-04-13 22:58:00,
2013-04-13 19:58:00,43.3,38.8,30.15,WSW,244,0.0,5.0,84,0.00,CLR,,0.09,WeatherDisplay:10.37,2013-04-13 23:58:00,
2013-04-13 20:58:00,42.7,38.8,30.18,West,265,0.0,2.0,86,0.00,CLR,,0.09,WeatherDisplay:10.37,2013-04-14 00:58:00,
2013-04-13 21:58:00,42.6,38.7,30.18,West,266,0.0,1.0,86,0.00,CLR,,0.09,WeatherDisplay:10.37,2013-04-14 01:58:00,
2013-04-13 22:58:00,41.8,38.5,30.19,West,278,0.0,1.0,88,0.00,CLR,,0.09,WeatherDisplay:10.37,2013-04-14 02:58:00,
2013-04-13 23:58:00,41.3,38.9,30.20,West,277,0.0,0.0,91,0.00,RA,,0.00,WeatherDisplay:10.37,2013-04-14 03:58:00,